Time;durP1;ratioP1;P1;durP2;ratioP2;P2;SDS_P1;SDS_P2;PMS_P1;PMS_P2;Temp;Humidity;BMP_temperature;BMP_pressure;BME280_temperature;BME280_humidity;BME280_pressure;Samples;Min_cycle;Max_cycle;Signal;HPM_P1;HPM_P2
2021/03/19 00:01:27;;;;;;;2.58;1.10;;;3.40;99.90;;;;;;5074345;28;20833;-57
2021/03/19 00:03:53;;;;;;;2.50;1.00;;;3.30;99.90;;;;;;5073397;28;20424;-57
2021/03/19 00:06:21;;;;;;;1.80;1.00;;;3.30;99.90;;;;;;5072391;28;20892;-58
2021/03/19 00:08:47;;;;;;;3.67;1.00;;;3.40;99.90;;;;;;5072414;28;20728;-57
2021/03/19 00:11:13;;;;;;;2.97;1.10;;;3.60;99.90;;;;;;5072219;28;20427;-57
2021/03/19 00:13:40;;;;;;;1.45;0.93;;;3.60;99.90;;;;;;5073214;28;20624;-58
2021/03/19 00:16:07;;;;;;;1.40;0.90;;;3.60;99.90;;;;;;5073971;28;20595;-57
2021/03/19 00:18:34;;;;;;;2.90;1.20;;;3.60;99.90;;;;;;5073490;28;20505;-58
2021/03/19 00:21:00;;;;;;;1.60;1.00;;;3.30;99.90;;;;;;5073414;28;20839;-57
2021/03/19 00:23:27;;;;;;;1.80;1.10;;;3.20;99.90;;;;;;5074098;28;20424;-59
2021/03/19 00:25:54;;;;;;;2.13;1.10;;;3.20;99.90;;;;;;5074228;28;20530;-56
2021/03/19 00:28:20;;;;;;;1.60;1.08;;;3.20;99.90;;;;;;5074200;28;20761;-56
2021/03/19 00:30:48;;;;;;;1.67;1.00;;;3.30;99.90;;;;;;5076690;28;20481;-57
2021/03/19 00:33:15;;;;;;;2.40;1.10;;;3.30;99.90;;;;;;5075861;28;20514;-56
2021/03/19 00:35:43;;;;;;;2.60;1.20;;;3.20;99.90;;;;;;5076113;28;20467;-57
2021/03/19 00:38:10;;;;;;;2.35;1.20;;;3.10;99.90;;;;;;5076353;28;20506;-57
2021/03/19 00:40:38;;;;;;;2.30;1.10;;;3.10;99.90;;;;;;5076334;28;20506;-55
2021/03/19 00:43:06;;;;;;;1.90;0.90;;;3.10;99.90;;;;;;5076355;28;20760;-57
2021/03/19 00:45:33;;;;;;;1.40;1.00;;;3.10;99.90;;;;;;5076077;28;20601;-57
2021/03/19 00:47:59;;;;;;;1.53;1.00;;;3.10;99.90;;;;;;5077274;28;20419;-58
2021/03/19 00:50:31;;;;;;;2.13;1.00;;;3.10;99.90;;;;;;5077193;28;20854;-60
2021/03/19 00:52:58;;;;;;;1.80;1.00;;;2.90;99.90;;;;;;5076298;28;20430;-58
2021/03/19 00:55:26;;;;;;;2.40;1.00;;;2.70;99.90;;;;;;5074890;28;20427;-58
2021/03/19 00:57:53;;;;;;;1.40;1.00;;;2.60;99.90;;;;;;5076128;28;20720;-58
2021/03/19 01:00:21;;;;;;;1.70;0.98;;;2.60;99.90;;;;;;5077046;28;20541;-58
2021/03/19 01:02:47;;;;;;;1.83;1.00;;;2.60;99.90;;;;;;5076991;28;20423;-57
2021/03/19 01:05:17;;;;;;;2.95;1.00;;;2.60;99.90;;;;;;5075801;28;20610;-56
2021/03/19 01:07:43;;;;;;;2.92;1.20;;;2.50;99.90;;;;;;5075009;28;20912;-57
2021/03/19 01:10:12;;;;;;;1.90;1.20;;;2.40;99.90;;;;;;5075695;28;20424;-56
2021/03/19 01:12:39;;;;;;;1.80;1.00;;;2.40;99.90;;;;;;5074642;28;20520;-58
2021/03/19 01:15:08;;;;;;;2.00;1.40;;;2.30;99.90;;;;;;5074188;28;20846;-58
2021/03/19 01:17:35;;;;;;;2.50;1.30;;;2.20;99.90;;;;;;5075046;28;20920;-55
2021/03/19 01:20:04;;;;;;;1.98;1.20;;;2.30;99.90;;;;;;5075153;28;20815;-58
2021/03/19 01:22:31;;;;;;;1.70;1.10;;;2.30;99.90;;;;;;5075018;28;20490;-56
2021/03/19 01:24:57;;;;;;;3.10;1.30;;;2.30;99.90;;;;;;5072886;28;20669;-57
2021/03/19 01:27:23;;;;;;;2.10;1.20;;;2.20;99.90;;;;;;5073656;28;20719;-58
2021/03/19 01:29:50;;;;;;;2.38;1.20;;;2.10;99.90;;;;;;5075178;28;20428;-58
2021/03/19 01:32:17;;;;;;;3.17;1.43;;;2.10;99.90;;;;;;5075669;28;20794;-57
2021/03/19 01:34:43;;;;;;;3.83;1.50;;;2.00;99.90;;;;;;5075816;28;20890;-56
2021/03/19 01:37:10;;;;;;;2.83;1.30;;;2.10;99.90;;;;;;5075957;28;20415;-56
2021/03/19 01:39:36;;;;;;;2.50;1.45;;;2.10;99.90;;;;;;5076811;28;20809;-57
2021/03/19 01:42:04;;;;;;;2.28;1.13;;;2.20;99.90;;;;;;5076620;28;20438;-57
2021/03/19 01:44:33;;;;;;;2.47;1.40;;;2.30;99.90;;;;;;5076808;28;20820;-55
2021/03/19 01:47:51;;;;;;;2.47;1.20;;;2.30;99.90;;;;;;5076860;28;20910;-55
2021/03/19 01:50:54;;;;;;;2.73;1.40;;;2.20;99.90;;;;;;4974921;28;20459;-56
2021/03/19 01:53:58;;;;;;;3.90;1.85;;;2.20;99.90;;;;;;4975232;28;20514;-56
2021/03/19 01:57:02;;;;;;;2.70;1.40;;;2.10;99.90;;;;;;5076702;28;20424;-53
2021/03/19 02:00:05;;;;;;;3.35;1.58;;;1.90;99.90;;;;;;5075929;28;20914;-56
2021/03/19 02:03:09;;;;;;;3.60;2.17;;;1.90;99.90;;;;;;5074852;28;20572;-56
2021/03/19 02:06:13;;;;;;;3.05;1.58;;;1.80;99.90;;;;;;5074525;28;20554;-56
2021/03/19 02:09:16;;;;;;;4.07;1.75;;;1.80;99.90;;;;;;5074621;28;20506;-56
2021/03/19 02:12:20;;;;;;;3.33;1.90;;;1.70;99.90;;;;;;5074474;28;20481;-56
2021/03/19 02:15:24;;;;;;;3.53;1.80;;;1.80;99.90;;;;;;5074374;28;20470;-56
2021/03/19 02:18:38;;;;;;;4.82;2.20;;;1.80;99.90;;;;;;5075238;28;20510;-56
2021/03/19 02:21:42;;;;;;;3.00;1.90;;;1.80;99.90;;;;;;4974521;28;20439;-55
2021/03/19 02:24:46;;;;;;;3.13;1.83;;;1.90;99.90;;;;;;5075905;28;20502;-56
2021/03/19 02:27:49;;;;;;;5.35;2.38;;;1.80;99.90;;;;;;5076005;28;20432;-56
2021/03/19 02:30:53;;;;;;;4.50;2.10;;;1.80;99.90;;;;;;5075829;28;20526;-54
2021/03/19 02:33:21;;;;;;;4.32;2.10;;;1.80;99.90;;;;;;5075731;28;20434;-52
2021/03/19 02:35:53;;;;;;;4.95;1.90;;;1.80;99.90;;;;;;5075782;28;20428;-54
2021/03/19 02:38:20;;;;;;;3.70;2.10;;;1.80;99.90;;;;;;5075395;28;20967;-54
2021/03/19 02:40:46;;;;;;;3.90;1.80;;;1.90;99.90;;;;;;5075583;28;20432;-56
2021/03/19 02:43:12;;;;;;;3.08;2.10;;;1.90;99.90;;;;;;5075588;28;20499;-57
2021/03/19 02:45:39;;;;;;;3.50;2.13;;;1.90;99.90;;;;;;5075489;28;20440;-54
2021/03/19 02:48:06;;;;;;;3.90;2.20;;;1.90;99.90;;;;;;5075822;28;20441;-57
2021/03/19 02:50:34;;;;;;;4.20;2.10;;;1.90;99.90;;;;;;5074743;28;20513;-55
2021/03/19 02:53:00;;;;;;;3.67;1.95;;;1.90;99.90;;;;;;5074872;28;20433;-57
2021/03/19 02:55:27;;;;;;;5.07;2.22;;;2.00;99.90;;;;;;5074982;28;20431;-55
2021/03/19 02:57:53;;;;;;;4.68;2.30;;;1.90;99.90;;;;;;5074857;28;20518;-56
2021/03/19 03:00:23;;;;;;;3.38;2.10;;;2.00;99.90;;;;;;5075018;28;20427;-53
2021/03/19 03:02:49;;;;;;;4.68;2.17;;;2.00;99.90;;;;;;5074874;28;20490;-55
2021/03/19 03:05:18;;;;;;;5.75;2.33;;;2.00;99.90;;;;;;5073949;28;20525;-55
2021/03/19 03:07:45;;;;;;;5.47;2.38;;;2.00;99.90;;;;;;5074858;28;20468;-55
2021/03/19 03:10:14;;;;;;;5.43;2.17;;;2.10;99.90;;;;;;5074502;28;20850;-56
2021/03/19 03:12:41;;;;;;;2.88;1.90;;;2.10;99.90;;;;;;5074705;28;20864;-55
2021/03/19 03:15:10;;;;;;;4.00;2.65;;;2.10;99.90;;;;;;5074369;28;20428;-53
2021/03/19 03:17:37;;;;;;;4.17;1.90;;;2.10;99.90;;;;;;5073921;28;20502;-54
2021/03/19 03:20:06;;;;;;;4.78;2.38;;;2.30;99.90;;;;;;5074252;28;20459;-57
2021/03/19 03:22:33;;;;;;;5.10;2.50;;;2.40;99.90;;;;;;5074710;28;20539;-57
2021/03/19 03:25:00;;;;;;;4.00;1.92;;;2.40;99.90;;;;;;5074414;28;20432;-58
2021/03/19 03:27:27;;;;;;;3.75;1.92;;;2.40;99.90;;;;;;5074675;28;20862;-55
2021/03/19 03:29:53;;;;;;;4.55;2.30;;;2.30;99.90;;;;;;5074744;28;20427;-56
2021/03/19 03:32:20;;;;;;;4.30;2.50;;;2.30;99.90;;;;;;5074165;28;20430;-54
2021/03/19 03:34:46;;;;;;;4.00;2.30;;;2.30;99.90;;;;;;5074734;28;20769;-56
2021/03/19 03:37:12;;;;;;;3.40;2.40;;;2.30;99.90;;;;;;5074393;28;20510;-57
2021/03/19 03:39:39;;;;;;;3.72;1.90;;;2.30;99.90;;;;;;5074608;28;20420;-56
2021/03/19 03:42:07;;;;;;;4.57;1.83;;;2.30;99.90;;;;;;5074811;28;20454;-55
2021/03/19 03:44:33;;;;;;;5.13;1.70;;;2.30;99.90;;;;;;5074798;28;20419;-56
2021/03/19 03:47:00;;;;;;;4.15;2.33;;;2.20;99.90;;;;;;5073592;28;20545;-55
2021/03/19 03:49:28;;;;;;;2.83;1.65;;;2.10;99.90;;;;;;5073272;28;20419;-56
2021/03/19 03:51:54;;;;;;;6.03;2.50;;;2.10;99.90;;;;;;5072894;28;20865;-56
2021/03/19 03:54:21;;;;;;;4.13;2.28;;;2.20;99.90;;;;;;5073094;28;20420;-57
2021/03/19 03:56:47;;;;;;;3.10;2.22;;;2.20;99.90;;;;;;5072996;28;20510;-55
2021/03/19 03:59:15;;;;;;;3.90;2.60;;;2.20;99.90;;;;;;5073006;28;20846;-56
2021/03/19 04:01:42;;;;;;;4.10;2.10;;;2.30;99.90;;;;;;5072752;28;20773;-55
2021/03/19 04:04:11;;;;;;;3.70;2.17;;;2.20;99.90;;;;;;5073197;28;20420;-57
2021/03/19 04:06:38;;;;;;;5.00;2.42;;;2.20;99.90;;;;;;5076250;28;20477;-56
2021/03/19 04:09:05;;;;;;;5.87;2.50;;;2.10;99.90;;;;;;5076825;28;20489;-54
2021/03/19 04:11:32;;;;;;;6.10;2.40;;;2.10;99.90;;;;;;5076963;28;20434;-54
2021/03/19 04:13:58;;;;;;;5.68;3.58;;;2.00;99.90;;;;;;5076877;28;20419;-54
2021/03/19 04:16:29;;;;;;;5.00;2.80;;;2.00;99.90;;;;;;5077476;28;20850;-57
2021/03/19 04:18:56;;;;;;;4.90;2.35;;;2.10;99.90;;;;;;5077823;28;20415;-57
2021/03/19 04:21:22;;;;;;;4.68;2.40;;;2.10;99.90;;;;;;5078007;28;20714;-55
2021/03/19 04:23:50;;;;;;;6.30;2.60;;;2.10;99.90;;;;;;5076920;28;20518;-57
2021/03/19 04:26:22;;;;;;;4.57;2.03;;;2.20;99.90;;;;;;5076729;28;20492;-56
2021/03/19 04:28:49;;;;;;;3.90;2.50;;;2.20;99.90;;;;;;5077201;28;20419;-54
2021/03/19 04:31:16;;;;;;;4.68;2.92;;;2.10;99.90;;;;;;5076838;28;20433;-57
2021/03/19 04:33:43;;;;;;;6.18;3.50;;;2.10;99.90;;;;;;5076728;28;20419;-53
2021/03/19 04:36:24;;;;;;;5.10;2.92;;;2.10;99.90;;;;;;5076893;28;20738;-55
2021/03/19 04:38:52;;;;;;;3.17;2.60;;;2.10;99.90;;;;;;5077915;28;20431;-57
2021/03/19 04:41:19;;;;;;;4.45;2.50;;;2.20;99.90;;;;;;5077766;28;20434;-57
2021/03/19 04:43:45;;;;;;;5.22;3.40;;;2.20;99.90;;;;;;5077744;28;20423;-56
2021/03/19 04:46:12;;;;;;;8.10;3.45;;;2.20;99.90;;;;;;5077373;28;20534;-56
2021/03/19 04:48:38;;;;;;;5.17;3.07;;;2.20;99.90;;;;;;5077521;28;20407;-55
2021/03/19 04:51:05;;;;;;;4.28;2.80;;;2.20;99.90;;;;;;5077470;28;20518;-56
2021/03/19 04:53:32;;;;;;;3.60;2.40;;;2.30;99.90;;;;;;5076812;28;20832;-55
2021/03/19 04:55:58;;;;;;;5.53;2.67;;;2.30;99.90;;;;;;5077511;28;20431;-56
2021/03/19 04:58:24;;;;;;;5.00;3.20;;;2.40;99.90;;;;;;5077575;28;20419;-56
2021/03/19 05:00:51;;;;;;;3.58;2.42;;;2.30;99.90;;;;;;5076396;28;20435;-57
2021/03/19 05:03:18;;;;;;;6.13;2.85;;;2.40;99.90;;;;;;5076801;28;20423;-54
2021/03/19 05:05:44;;;;;;;5.38;3.30;;;2.40;99.90;;;;;;5076519;28;20424;-55
2021/03/19 05:08:11;;;;;;;4.18;2.30;;;2.50;99.90;;;;;;5076846;28;20419;-56
2021/03/19 05:10:38;;;;;;;2.75;1.88;;;2.80;99.90;;;;;;5076666;28;20898;-54
2021/03/19 05:13:08;;;;;;;4.20;2.65;;;3.30;99.90;;;;;;5075562;28;20464;-53
2021/03/19 05:15:35;;;;;;;3.15;2.20;;;3.40;99.90;;;;;;5076360;28;20453;-52
2021/03/19 05:18:01;;;;;;;4.10;2.20;;;3.40;99.90;;;;;;5077512;28;20423;-52
2021/03/19 05:20:29;;;;;;;3.77;2.00;;;3.40;99.90;;;;;;5077491;28;20427;-56
2021/03/19 05:22:56;;;;;;;3.97;2.58;;;3.20;99.90;;;;;;5056887;28;20421;-55
2021/03/19 05:25:25;;;;;;;3.90;2.60;;;3.10;99.90;;;;;;5057338;28;20445;-54
2021/03/19 05:27:52;;;;;;;4.90;2.50;;;3.00;99.90;;;;;;5056552;28;20426;-54
2021/03/19 05:30:22;;;;;;;2.60;2.00;;;2.90;99.90;;;;;;5057037;28;20501;-52
2021/03/19 05:32:49;;;;;;;5.00;2.10;;;2.90;99.90;;;;;;5056230;28;20426;-51
2021/03/19 05:35:19;;;;;;;4.32;2.47;;;2.80;99.90;;;;;;5056711;28;20467;-55
2021/03/19 05:37:48;;;;;;;5.30;2.90;;;2.60;99.90;;;;;;5056845;28;20422;-55
2021/03/19 05:40:29;;;;;;;5.10;2.88;;;2.40;99.90;;;;;;5057108;28;20425;-53
2021/03/19 05:42:55;;;;;;;3.50;2.60;;;2.60;99.90;;;;;;5074422;28;20758;-53
2021/03/19 05:45:26;;;;;;;3.85;2.80;;;2.70;99.90;;;;;;5075888;28;20427;-55
2021/03/19 05:47:53;;;;;;;3.38;2.50;;;2.70;99.90;;;;;;5076540;28;20469;-53
2021/03/19 05:50:26;;;;;;;4.07;2.20;;;2.90;99.90;;;;;;5061715;28;20452;-51
2021/03/19 05:52:53;;;;;;;5.05;2.75;;;2.90;99.90;;;;;;5054968;28;20464;-50
2021/03/19 05:55:24;;;;;;;3.20;2.23;;;2.90;99.90;;;;;;5055075;28;20932;-51
2021/03/19 05:57:56;;;;;;;4.63;2.33;;;3.00;99.90;;;;;;5054742;28;20429;-52
2021/03/19 06:00:24;;;;;;;4.18;2.10;;;3.00;99.90;;;;;;5055688;28;20439;-55
2021/03/19 06:02:51;;;;;;;4.70;2.58;;;3.00;99.90;;;;;;5072341;28;20579;-57
2021/03/19 06:05:20;;;;;;;5.80;2.63;;;3.10;99.90;;;;;;5074325;28;20433;-54
2021/03/19 06:07:49;;;;;;;4.18;2.00;;;3.10;99.90;;;;;;5073980;28;20522;-52
2021/03/19 06:10:20;;;;;;;3.83;2.17;;;3.30;99.90;;;;;;5074116;28;20427;-50
2021/03/19 06:12:49;;;;;;;3.20;2.13;;;3.30;99.90;;;;;;5073723;28;20424;-54
2021/03/19 06:15:29;;;;;;;4.43;2.80;;;3.20;99.90;;;;;;5074464;28;20431;-54
2021/03/19 06:17:58;;;;;;;4.20;2.50;;;3.10;99.90;;;;;;5070876;28;20502;-53
2021/03/19 06:20:26;;;;;;;6.20;3.40;;;3.10;99.90;;;;;;5054989;28;20793;-52
2021/03/19 06:23:02;;;;;;;5.93;3.63;;;3.20;99.90;;;;;;5054216;28;20421;-52
2021/03/19 06:25:37;;;;;;;5.43;2.83;;;3.20;99.90;;;;;;5054190;28;20512;-51
2021/03/19 06:28:11;;;;;;;4.30;2.70;;;3.20;99.90;;;;;;5053046;28;20856;-51
2021/03/19 06:30:40;;;;;;;3.57;2.60;;;3.20;99.90;;;;;;5053343;28;20516;-54
2021/03/19 06:33:25;;;;;;;5.70;2.83;;;3.20;99.90;;;;;;5053239;28;20425;-54
2021/03/19 06:36:08;;;;;;;4.30;2.90;;;3.20;99.90;;;;;;5052376;28;20433;-53
2021/03/19 06:38:37;;;;;;;5.30;3.42;;;3.10;99.90;;;;;;5052921;28;21059;-57
2021/03/19 06:41:26;;;;;;;5.67;3.43;;;3.10;99.90;;;;;;5072623;28;20471;-51
2021/03/19 06:44:12;;;;;;;4.53;3.38;;;3.10;99.90;;;;;;5068889;28;20480;-52
2021/03/19 06:46:43;;;;;;;5.80;3.70;;;3.10;99.90;;;;;;5059479;28;20519;-53
2021/03/19 06:49:10;;;;;;;5.43;3.97;;;3.10;99.90;;;;;;5060650;28;20431;-51
2021/03/19 06:51:38;;;;;;;6.23;4.10;;;3.10;99.90;;;;;;5055147;28;20429;-55
2021/03/19 06:54:07;;;;;;;6.68;3.92;;;3.20;99.90;;;;;;5054817;28;20425;-55
2021/03/19 06:56:35;;;;;;;5.75;4.30;;;3.40;99.90;;;;;;5054203;28;20429;-54
2021/03/19 06:59:17;;;;;;;5.35;3.40;;;3.50;99.90;;;;;;5051667;28;20428;-49
2021/03/19 07:01:44;;;;;;;5.70;3.97;;;3.60;99.90;;;;;;5052195;28;20427;-54
2021/03/19 07:04:46;;;;;;;4.85;3.90;;;3.60;99.90;;;;;;5060140;28;20432;-52
2021/03/19 07:07:45;;;;;;;5.40;3.85;;;3.60;99.90;;;;;;5070795;28;20434;-54
2021/03/19 07:10:29;;;;;;;6.13;4.80;;;3.40;99.90;;;;;;5071538;28;20897;-50
2021/03/19 07:13:02;;;;;;;7.10;4.60;;;3.30;99.90;;;;;;5071789;28;20747;-56
2021/03/19 07:15:39;;;;;;;6.10;4.63;;;3.30;99.90;;;;;;5056959;28;20491;-56
2021/03/19 07:18:13;;;;;;;7.07;4.70;;;3.40;99.90;;;;;;5056797;28;20447;-56
2021/03/19 07:21:17;;;;;;;7.25;5.13;;;3.50;99.90;;;;;;5054620;28;20807;-57
2021/03/19 07:23:56;;;;;;;7.50;4.57;;;3.60;99.90;;;;;;5054946;28;20426;-57
2021/03/19 07:26:24;;;;;;;7.85;5.60;;;3.70;99.90;;;;;;5062866;28;20547;-56
2021/03/19 07:29:24;;;;;;;16.92;12.50;;;3.90;99.90;;;;;;5061250;28;20835;-57
2021/03/19 07:32:12;;;;;;;11.27;7.97;;;4.10;99.90;;;;;;5051517;28;20522;-57
2021/03/19 07:34:58;;;;;;;8.65;5.43;;;4.20;99.90;;;;;;5063450;28;20510;-56
2021/03/19 07:38:08;;;;;;;6.10;4.60;;;4.30;99.90;;;;;;5071411;28;20758;-57
2021/03/19 07:41:00;;;;;;;6.78;4.55;;;4.30;99.90;;;;;;5041206;28;20446;-57
2021/03/19 07:43:59;;;;;;;6.40;3.80;;;4.40;99.90;;;;;;5065721;28;20427;-54
2021/03/19 07:46:33;;;;;;;7.22;4.15;;;4.40;99.90;;;;;;5051234;28;20491;-57
2021/03/19 07:49:25;;;;;;;7.25;4.15;;;4.30;99.90;;;;;;5062684;28;20510;-56
2021/03/19 07:52:02;;;;;;;5.80;3.05;;;4.30;99.90;;;;;;5071478;28;20423;-55
2021/03/19 07:54:42;;;;;;;5.90;4.22;;;4.30;99.90;;;;;;5056962;28;20435;-56
2021/03/19 07:57:14;;;;;;;5.57;3.63;;;4.20;99.90;;;;;;5065951;28;20881;-55
2021/03/19 07:59:53;;;;;;;6.05;3.40;;;4.30;99.90;;;;;;5070437;28;20431;-57
2021/03/19 08:02:41;;;;;;;8.15;5.03;;;4.60;99.90;;;;;;5064853;28;20510;-56
2021/03/19 08:05:19;;;;;;;10.93;6.13;;;4.70;99.90;;;;;;5062358;28;20524;-55
2021/03/19 08:08:04;;;;;;;6.57;4.10;;;5.00;99.90;;;;;;5051551;28;20749;-55
2021/03/19 08:10:34;;;;;;;5.15;3.78;;;5.10;99.90;;;;;;5068799;28;20434;-51
2021/03/19 08:13:20;;;;;;;4.05;2.63;;;5.00;99.90;;;;;;5062568;28;20523;-56
2021/03/19 08:15:51;;;;;;;14.40;8.73;;;5.20;99.90;;;;;;5051647;28;20421;-54
2021/03/19 08:18:26;;;;;;;16.58;10.25;;;5.50;99.90;;;;;;5064783;28;20514;-56
2021/03/19 08:21:17;;;;;;;4.95;2.72;;;5.60;99.90;;;;;;5063657;28;20466;-57
2021/03/19 08:23:55;;;;;;;4.03;2.35;;;5.50;99.90;;;;;;5063685;28;20412;-53
2021/03/19 08:26:27;;;;;;;3.40;1.80;;;5.60;99.90;;;;;;5055738;28;20543;-52
2021/03/19 08:29:00;;;;;;;19.73;15.05;;;4.80;99.90;;;;;;5069317;28;20426;-53
2021/03/19 08:31:34;;;;;;;10.60;7.68;;;4.90;99.90;;;;;;5071590;28;20424;-53
2021/03/19 08:34:13;;;;;;;7.97;5.20;;;4.80;99.90;;;;;;5060145;28;20597;-57
2021/03/19 08:36:43;;;;;;;3.85;2.63;;;4.90;99.90;;;;;;5052189;28;20507;-59
2021/03/19 08:39:22;;;;;;;5.25;2.28;;;4.80;99.90;;;;;;5071928;28;20704;-59
2021/03/19 08:41:51;;;;;;;4.63;2.75;;;4.90;99.90;;;;;;5060529;28;20506;-60
2021/03/19 08:44:21;;;;;;;5.30;2.90;;;4.90;99.90;;;;;;5071709;28;20434;-59
2021/03/19 08:46:51;;;;;;;3.67;2.38;;;5.10;99.90;;;;;;5073351;28;20523;-60
2021/03/19 08:49:40;;;;;;;6.68;2.65;;;5.00;99.90;;;;;;5073133;28;20415;-59
2021/03/19 08:52:26;;;;;;;4.60;3.10;;;5.00;99.90;;;;;;5075571;28;20821;-59
2021/03/19 08:55:21;;;;;;;3.97;2.20;;;5.20;99.90;;;;;;5075196;28;20458;-58
2021/03/19 08:57:48;;;;;;;5.22;2.38;;;5.30;99.90;;;;;;5074422;28;20426;-60
2021/03/19 09:00:55;;;;;;;4.78;1.75;;;5.50;99.90;;;;;;5072190;28;20506;-61
2021/03/19 09:03:49;;;;;;;3.72;1.80;;;5.80;99.90;;;;;;5073054;28;20427;-60
2021/03/19 09:06:18;;;;;;;5.93;2.67;;;5.90;99.90;;;;;;5058355;28;20472;-60
2021/03/19 09:09:06;;;;;;;4.57;2.08;;;5.80;99.90;;;;;;5072318;28;20427;-60
2021/03/19 09:12:06;;;;;;;4.07;2.05;;;5.80;99.90;;;;;;5072809;28;20432;-60
2021/03/19 09:14:39;;;;;;;2.83;1.90;;;5.70;99.90;;;;;;5067648;28;20812;-59
2021/03/19 09:17:07;;;;;;;6.15;2.95;;;5.80;99.90;;;;;;5074639;28;20411;-59
2021/03/19 09:19:53;;;;;;;4.80;2.50;;;5.70;99.90;;;;;;5075287;28;20489;-59
2021/03/19 09:22:30;;;;;;;4.43;2.60;;;5.30;99.90;;;;;;5070759;28;20425;-59
2021/03/19 09:25:40;;;;;;;5.70;2.57;;;5.20;99.90;;;;;;5054441;28;20512;-58
2021/03/19 09:28:31;;;;;;;4.10;2.40;;;5.10;99.90;;;;;;5051494;28;20436;-59
2021/03/19 09:31:01;;;;;;;4.70;2.10;;;5.50;99.90;;;;;;5065736;28;20468;-59
2021/03/19 09:34:01;;;;;;;4.15;1.73;;;5.80;99.90;;;;;;5068997;28;20558;-59
2021/03/19 09:36:53;;;;;;;3.13;1.50;;;5.90;99.90;;;;;;5072351;28;20423;-59
2021/03/19 09:40:03;;;;;;;4.00;1.70;;;5.80;99.90;;;;;;5073061;28;20423;-59
2021/03/19 09:42:53;;;;;;;2.60;1.70;;;5.60;99.90;;;;;;5069003;28;20871;-59
2021/03/19 09:45:42;;;;;;;3.50;1.30;;;5.30;99.90;;;;;;5074269;28;20429;-59
2021/03/19 09:48:24;;;;;;;4.32;1.50;;;5.10;99.90;;;;;;5073720;28;20432;-59
2021/03/19 09:51:03;;;;;;;2.80;1.40;;;5.30;99.90;;;;;;5067062;28;20777;-59
2021/03/19 09:53:36;;;;;;;2.30;1.40;;;5.30;99.90;;;;;;5065195;28;20854;-60
2021/03/19 09:56:14;;;;;;;3.17;1.70;;;5.30;99.90;;;;;;5070545;28;20445;-60
2021/03/19 09:58:44;;;;;;;3.38;1.70;;;5.20;99.90;;;;;;5065329;28;20424;-59
2021/03/19 10:01:28;;;;;;;3.38;1.40;;;5.30;99.90;;;;;;5073280;28;20530;-60
2021/03/19 10:03:59;;;;;;;2.40;1.20;;;5.60;99.90;;;;;;5069955;28;20509;-60
2021/03/19 10:06:29;;;;;;;2.20;1.20;;;6.10;99.90;;;;;;5073652;28;20735;-60
2021/03/19 10:09:09;;;;;;;2.25;1.40;;;6.50;99.90;;;;;;5067535;28;20455;-60
2021/03/19 10:11:48;;;;;;;2.60;1.27;;;6.80;99.90;;;;;;5070954;28;20434;-60
2021/03/19 10:14:22;;;;;;;2.30;1.20;;;7.10;99.90;;;;;;5071042;28;20514;-60
2021/03/19 10:16:49;;;;;;;2.42;1.33;;;7.30;99.90;;;;;;5069401;28;20965;-60
2021/03/19 10:19:19;;;;;;;1.80;1.30;;;6.90;99.90;;;;;;5050523;28;20622;-60
2021/03/19 10:21:48;;;;;;;2.63;1.60;;;6.80;99.90;;;;;;5052061;28;20436;-60
2021/03/19 10:24:25;;;;;;;3.00;1.50;;;6.40;99.90;;;;;;5051364;28;20449;-59
2021/03/19 10:26:57;;;;;;;2.65;1.48;;;5.80;99.90;;;;;;5049533;28;20452;-60
2021/03/19 10:29:27;;;;;;;3.33;1.33;;;5.40;99.90;;;;;;5051084;28;20425;-59
2021/03/19 10:32:00;;;;;;;2.78;1.50;;;5.40;99.90;;;;;;5057828;28;20418;-59
2021/03/19 10:34:43;;;;;;;2.03;1.40;;;5.40;99.90;;;;;;5060056;28;20868;-60
2021/03/19 10:37:27;;;;;;;3.17;1.85;;;5.50;99.90;;;;;;5052255;28;20425;-59
2021/03/19 10:39:59;;;;;;;3.50;1.50;;;5.50;99.90;;;;;;5071089;28;20431;-59
2021/03/19 10:42:33;;;;;;;2.20;1.60;;;5.60;99.90;;;;;;5059193;28;20434;-59
2021/03/19 10:45:16;;;;;;;2.42;1.30;;;5.70;99.90;;;;;;5073065;28;20481;-58
2021/03/19 10:47:50;;;;;;;1.90;1.40;;;5.90;99.90;;;;;;5070612;28;20613;-59
2021/03/19 10:50:26;;;;;;;2.25;1.30;;;6.30;99.90;;;;;;5071559;28;20479;-59
2021/03/19 10:53:03;;;;;;;2.28;1.30;;;6.30;99.90;;;;;;5061952;28;20466;-59
2021/03/19 10:55:34;;;;;;;2.05;1.20;;;6.60;99.90;;;;;;5060324;28;20494;-59
2021/03/19 10:58:31;;;;;;;2.30;1.40;;;6.30;99.90;;;;;;5064407;28;20526;-59
2021/03/19 11:01:17;;;;;;;1.70;1.30;;;6.20;99.90;;;;;;5062977;28;21597;-59
2021/03/19 11:03:47;;;;;;;1.60;1.13;;;6.40;99.90;;;;;;5067725;28;20444;-58
2021/03/19 11:06:33;;;;;;;1.70;1.20;;;6.00;99.90;;;;;;5065450;28;20431;-58
2021/03/19 11:09:23;;;;;;;1.70;1.00;;;5.40;99.90;;;;;;5068256;28;20419;-58
2021/03/19 11:11:54;;;;;;;2.50;1.17;;;5.10;99.90;;;;;;5064649;28;20435;-58
2021/03/19 11:14:25;;;;;;;1.60;1.10;;;5.00;99.90;;;;;;5065963;28;20474;-59
2021/03/19 11:16:54;;;;;;;1.30;0.90;;;5.00;99.90;;;;;;5071674;28;20546;-59
2021/03/19 11:19:25;;;;;;;1.52;1.00;;;5.00;99.90;;;;;;5070242;28;20434;-59
2021/03/19 11:22:01;;;;;;;1.80;0.80;;;5.00;99.90;;;;;;5069577;28;20431;-59
2021/03/19 11:24:31;;;;;;;1.40;0.98;;;5.10;99.90;;;;;;5070744;28;20910;-59
2021/03/19 11:27:01;;;;;;;1.80;0.90;;;5.20;99.90;;;;;;5072080;28;20884;-56
2021/03/19 11:29:36;;;;;;;0.98;0.60;;;5.30;99.90;;;;;;5072312;28;20423;-60
2021/03/19 11:32:25;;;;;;;1.40;0.70;;;5.50;99.90;;;;;;5072949;28;20447;-60
2021/03/19 11:34:58;;;;;;;1.58;0.75;;;5.80;99.90;;;;;;5071574;28;20434;-60
2021/03/19 11:37:37;;;;;;;1.30;0.73;;;6.00;99.90;;;;;;5072352;28;20470;-60
2021/03/19 11:40:08;;;;;;;1.10;0.70;;;5.70;99.90;;;;;;5066609;28;20535;-60
2021/03/19 11:42:39;;;;;;;1.20;0.80;;;5.80;99.90;;;;;;5071247;28;20663;-63
2021/03/19 11:45:10;;;;;;;1.20;0.70;;;5.80;99.90;;;;;;5071115;28;20480;-61
2021/03/19 11:47:38;;;;;;;1.40;1.30;;;6.00;99.90;;;;;;5071653;28;20438;-62
2021/03/19 11:50:26;;;;;;;1.90;0.80;;;5.90;99.90;;;;;;5066615;28;20514;-59
2021/03/19 11:52:55;;;;;;;1.35;0.80;;;6.00;99.90;;;;;;5070829;28;20754;-59
2021/03/19 11:55:25;;;;;;;1.00;0.70;;;6.00;99.90;;;;;;5071279;28;20505;-59
2021/03/19 11:57:52;;;;;;;1.20;0.70;;;5.80;99.90;;;;;;5067329;28;20510;-59
2021/03/19 12:00:19;;;;;;;2.00;0.98;;;5.90;99.90;;;;;;5067271;28;20510;-59
2021/03/19 12:02:50;;;;;;;1.90;1.00;;;5.90;99.90;;;;;;5071475;28;20870;-59
2021/03/19 12:05:22;;;;;;;1.98;1.00;;;5.70;99.90;;;;;;5056102;28;20472;-58
2021/03/19 12:07:48;;;;;;;2.00;0.90;;;5.60;99.90;;;;;;5061251;28;20869;-60
2021/03/19 12:10:15;;;;;;;1.98;1.00;;;5.60;99.90;;;;;;5063652;28;20876;-58
2021/03/19 12:12:42;;;;;;;1.83;0.90;;;5.80;99.90;;;;;;5053239;28;20421;-59
2021/03/19 12:15:14;;;;;;;2.53;1.10;;;6.00;99.90;;;;;;5052301;28;20503;-60
2021/03/19 12:17:40;;;;;;;1.63;1.10;;;5.70;99.90;;;;;;5052861;28;20420;-59
2021/03/19 12:20:08;;;;;;;2.17;1.00;;;5.70;99.90;;;;;;5052906;28;20464;-59
2021/03/19 12:22:35;;;;;;;2.30;1.20;;;5.90;99.90;;;;;;5062508;28;20481;-59
2021/03/19 12:25:01;;;;;;;1.90;1.08;;;6.00;99.90;;;;;;5065468;28;20435;-59
2021/03/19 12:27:28;;;;;;;3.70;1.10;;;5.60;99.90;;;;;;5056574;28;20865;-58
2021/03/19 12:29:54;;;;;;;2.00;1.00;;;5.30;99.90;;;;;;5058898;28;20439;-59
2021/03/19 12:32:20;;;;;;;2.40;1.13;;;5.20;99.90;;;;;;5075863;28;20859;-58
2021/03/19 12:34:47;;;;;;;2.58;1.40;;;5.30;99.90;;;;;;5075246;28;20426;-59
2021/03/19 12:37:14;;;;;;;2.80;1.10;;;5.10;99.90;;;;;;5070964;28;20838;-58
2021/03/19 12:39:41;;;;;;;4.20;1.30;;;5.10;99.90;;;;;;5069162;28;20964;-59
2021/03/19 12:42:11;;;;;;;2.42;1.27;;;5.10;99.90;;;;;;5065819;28;20879;-59
2021/03/19 12:44:38;;;;;;;2.55;1.20;;;4.90;99.90;;;;;;5065921;28;20470;-58
2021/03/19 12:47:05;;;;;;;3.10;1.50;;;4.80;99.90;;;;;;5073830;28;20509;-59
2021/03/19 12:49:33;;;;;;;3.45;1.42;;;4.80;99.90;;;;;;5066860;28;20950;-59
2021/03/19 12:52:05;;;;;;;3.58;1.50;;;5.00;99.90;;;;;;5051489;28;20423;-58
2021/03/19 12:54:31;;;;;;;4.25;1.90;;;5.00;99.90;;;;;;5075298;28;20835;-58
2021/03/19 12:57:01;;;;;;;6.30;2.10;;;5.10;99.90;;;;;;5075823;28;20416;-58
2021/03/19 12:59:28;;;;;;;4.90;2.08;;;4.60;99.90;;;;;;5073950;28;20436;-59
2021/03/19 13:01:57;;;;;;;4.20;1.80;;;4.60;99.90;;;;;;5073842;28;20423;-58
2021/03/19 13:04:27;;;;;;;3.67;1.90;;;4.80;99.90;;;;;;5069688;28;20431;-57
2021/03/19 13:06:56;;;;;;;5.28;2.30;;;4.80;99.90;;;;;;5055846;28;20928;-58
2021/03/19 13:09:22;;;;;;;5.47;2.20;;;4.60;99.90;;;;;;5063584;28;20531;-59
2021/03/19 13:11:49;;;;;;;5.30;2.03;;;4.50;99.90;;;;;;5059282;28;20862;-59
2021/03/19 13:14:16;;;;;;;5.38;2.42;;;4.80;99.90;;;;;;5065861;28;20462;-60
2021/03/19 13:16:45;;;;;;;5.00;2.53;;;5.00;99.90;;;;;;5066932;28;20430;-60
2021/03/19 13:19:12;;;;;;;7.22;3.20;;;4.90;99.90;;;;;;5066871;28;20427;-60
2021/03/19 13:21:38;;;;;;;3.35;2.20;;;4.80;99.90;;;;;;5065625;28;20439;-60
2021/03/19 13:24:10;;;;;;;5.80;2.00;;;4.80;99.90;;;;;;5058548;28;20440;-61
2021/03/19 13:26:40;;;;;;;4.63;2.70;;;5.00;99.90;;;;;;5054228;28;20788;-58
2021/03/19 13:29:12;;;;;;;5.20;3.13;;;4.80;99.90;;;;;;5057563;28;20434;-56
2021/03/19 13:31:42;;;;;;;9.50;5.60;;;4.60;99.90;;;;;;5054485;28;20738;-57
2021/03/19 13:34:11;;;;;;;4.95;2.25;;;4.80;99.90;;;;;;5058023;28;20478;-58